Wildorado, Texas
Current Conditions -  °F | °C
As of 2:15 PM on Thursday 23 Oct 2014 (Local Time) from KHRX Reporting Station
Clear Clear  
Wind Chill: 78°   Ceiling: Unl
Heat Index: 79°   Visibility: 10mi
Dew Point: 51°   Wind: 5mph
Humidity: 39%   Direction: 210°SSW
Pressure: 30.11"   Gusts: NA
Location:  35.21°N, 102.2°W
Report Text: KHRX 231915Z AUTO 21004KT 10SM CLR 26/11 A3011 RMK AO2 T02560108
Loading
Personal Weather Stations






























Interactive Weather Map
Tropical Storm Tracking
New forecast layout! Learn more

10-Day Weather Forecast

Advertisements
Track Severe Weather on mobile